sensor_id;sensor_type;location;lat;lon;timestamp;P1;durP1;ratioP1;P2;durP2;ratioP2
40691;SDS011;26377;53.344;14.886;2022-08-21T00:00:53;13.58;;;3.98;;
40691;SDS011;26377;53.344;14.886;2022-08-21T00:03:20;7.90;;;3.40;;
40691;SDS011;26377;53.344;14.886;2022-08-21T00:05:50;8.85;;;2.83;;
40691;SDS011;26377;53.344;14.886;2022-08-21T00:08:21;6.40;;;3.00;;
40691;SDS011;26377;53.344;14.886;2022-08-21T00:10:48;9.15;;;3.85;;
40691;SDS011;26377;53.344;14.886;2022-08-21T00:13:18;6.28;;;3.00;;
40691;SDS011;26377;53.344;14.886;2022-08-21T00:15:50;8.53;;;2.80;;
40691;SDS011;26377;53.344;14.886;2022-08-21T00:18:22;7.50;;;3.67;;
40691;SDS011;26377;53.344;14.886;2022-08-21T00:20:53;6.33;;;2.77;;
40691;SDS011;26377;53.344;14.886;2022-08-21T00:23:26;15.80;;;3.22;;
40691;SDS011;26377;53.344;14.886;2022-08-21T00:25:58;13.18;;;3.60;;
40691;SDS011;26377;53.344;14.886;2022-08-21T00:28:27;7.08;;;2.75;;
40691;SDS011;26377;53.344;14.886;2022-08-21T00:30:56;14.43;;;3.20;;
40691;SDS011;26377;53.344;14.886;2022-08-21T00:33:25;9.33;;;3.00;;
40691;SDS011;26377;53.344;14.886;2022-08-21T00:35:55;11.00;;;2.67;;
40691;SDS011;26377;53.344;14.886;2022-08-21T00:38:25;9.25;;;2.60;;
40691;SDS011;26377;53.344;14.886;2022-08-21T00:40:57;9.23;;;3.05;;
40691;SDS011;26377;53.344;14.886;2022-08-21T00:43:31;9.25;;;3.15;;
40691;SDS011;26377;53.344;14.886;2022-08-21T00:46:01;6.47;;;2.40;;
40691;SDS011;26377;53.344;14.886;2022-08-21T00:48:32;8.83;;;2.40;;
40691;SDS011;26377;53.344;14.886;2022-08-21T00:51:09;14.65;;;3.52;;
40691;SDS011;26377;53.344;14.886;2022-08-21T00:53:37;13.30;;;2.87;;
40691;SDS011;26377;53.344;14.886;2022-08-21T00:56:10;7.55;;;2.37;;
40691;SDS011;26377;53.344;14.886;2022-08-21T00:58:43;8.48;;;2.83;;
40691;SDS011;26377;53.344;14.886;2022-08-21T01:01:15;11.53;;;2.72;;
40691;SDS011;26377;53.344;14.886;2022-08-21T01:03:43;5.65;;;3.05;;
40691;SDS011;26377;53.344;14.886;2022-08-21T01:06:15;9.20;;;2.85;;
40691;SDS011;26377;53.344;14.886;2022-08-21T01:08:45;8.00;;;2.90;;
40691;SDS011;26377;53.344;14.886;2022-08-21T01:11:16;8.25;;;2.77;;
40691;SDS011;26377;53.344;14.886;2022-08-21T01:13:51;8.70;;;2.50;;
40691;SDS011;26377;53.344;14.886;2022-08-21T01:16:19;11.90;;;2.45;;
40691;SDS011;26377;53.344;14.886;2022-08-21T01:18:49;12.07;;;3.08;;
40691;SDS011;26377;53.344;14.886;2022-08-21T01:21:19;8.45;;;2.15;;
40691;SDS011;26377;53.344;14.886;2022-08-21T01:23:51;8.80;;;2.55;;
40691;SDS011;26377;53.344;14.886;2022-08-21T01:26:25;9.65;;;2.67;;
40691;SDS011;26377;53.344;14.886;2022-08-21T01:29:01;6.12;;;2.37;;
40691;SDS011;26377;53.344;14.886;2022-08-21T01:31:36;6.85;;;2.25;;
40691;SDS011;26377;53.344;14.886;2022-08-21T01:34:06;8.70;;;2.92;;
40691;SDS011;26377;53.344;14.886;2022-08-21T01:36:34;12.37;;;2.60;;
40691;SDS011;26377;53.344;14.886;2022-08-21T01:39:03;12.98;;;2.50;;
40691;SDS011;26377;53.344;14.886;2022-08-21T01:41:32;10.05;;;2.58;;
40691;SDS011;26377;53.344;14.886;2022-08-21T01:44:00;18.52;;;3.12;;
40691;SDS011;26377;53.344;14.886;2022-08-21T01:46:29;7.78;;;2.70;;
40691;SDS011;26377;53.344;14.886;2022-08-21T01:48:58;7.87;;;2.75;;
40691;SDS011;26377;53.344;14.886;2022-08-21T01:53:58;12.10;;;3.05;;
40691;SDS011;26377;53.344;14.886;2022-08-21T01:56:27;6.80;;;2.55;;
40691;SDS011;26377;53.344;14.886;2022-08-21T01:58:54;11.48;;;2.70;;
40691;SDS011;26377;53.344;14.886;2022-08-21T02:01:24;7.45;;;2.77;;
40691;SDS011;26377;53.344;14.886;2022-08-21T02:03:52;8.90;;;2.50;;
40691;SDS011;26377;53.344;14.886;2022-08-21T02:08:53;9.83;;;2.77;;
40691;SDS011;26377;53.344;14.886;2022-08-21T02:11:20;8.03;;;2.42;;
40691;SDS011;26377;53.344;14.886;2022-08-21T02:13:51;10.50;;;3.02;;
40691;SDS011;26377;53.344;14.886;2022-08-21T02:16:21;13.83;;;2.83;;
40691;SDS011;26377;53.344;14.886;2022-08-21T02:18:50;8.98;;;2.75;;
40691;SDS011;26377;53.344;14.886;2022-08-21T02:21:21;7.03;;;2.72;;
40691;SDS011;26377;53.344;14.886;2022-08-21T02:23:49;6.35;;;2.42;;
40691;SDS011;26377;53.344;14.886;2022-08-21T02:26:17;9.10;;;2.80;;
40691;SDS011;26377;53.344;14.886;2022-08-21T02:28:47;13.20;;;2.75;;
40691;SDS011;26377;53.344;14.886;2022-08-21T02:31:17;9.68;;;3.70;;
40691;SDS011;26377;53.344;14.886;2022-08-21T02:33:46;11.30;;;2.98;;
40691;SDS011;26377;53.344;14.886;2022-08-21T02:36:16;8.38;;;2.70;;
40691;SDS011;26377;53.344;14.886;2022-08-21T02:38:44;6.80;;;2.40;;
40691;SDS011;26377;53.344;14.886;2022-08-21T02:41:15;11.30;;;3.00;;
40691;SDS011;26377;53.344;14.886;2022-08-21T02:43:45;10.48;;;2.60;;
40691;SDS011;26377;53.344;14.886;2022-08-21T02:46:14;10.03;;;2.60;;
40691;SDS011;26377;53.344;14.886;2022-08-21T02:48:46;10.08;;;2.37;;
40691;SDS011;26377;53.344;14.886;2022-08-21T02:51:15;9.05;;;3.17;;
40691;SDS011;26377;53.344;14.886;2022-08-21T02:53:47;7.03;;;2.30;;
40691;SDS011;26377;53.344;14.886;2022-08-21T02:56:17;6.80;;;2.58;;
40691;SDS011;26377;53.344;14.886;2022-08-21T02:58:48;7.47;;;2.47;;
40691;SDS011;26377;53.344;14.886;2022-08-21T03:01:22;7.97;;;2.27;;
40691;SDS011;26377;53.344;14.886;2022-08-21T03:03:53;7.03;;;2.30;;
40691;SDS011;26377;53.344;14.886;2022-08-21T03:06:22;8.98;;;2.50;;
40691;SDS011;26377;53.344;14.886;2022-08-21T03:08:52;10.18;;;2.62;;
40691;SDS011;26377;53.344;14.886;2022-08-21T03:11:21;8.03;;;2.33;;
40691;SDS011;26377;53.344;14.886;2022-08-21T03:13:48;7.60;;;2.30;;
40691;SDS011;26377;53.344;14.886;2022-08-21T03:16:17;7.55;;;2.52;;
40691;SDS011;26377;53.344;14.886;2022-08-21T03:18:46;12.70;;;3.20;;
40691;SDS011;26377;53.344;14.886;2022-08-21T03:21:14;9.53;;;2.52;;
40691;SDS011;26377;53.344;14.886;2022-08-21T03:23:41;8.48;;;2.30;;
40691;SDS011;26377;53.344;14.886;2022-08-21T03:26:12;10.18;;;2.67;;
40691;SDS011;26377;53.344;14.886;2022-08-21T03:28:40;11.78;;;3.40;;
40691;SDS011;26377;53.344;14.886;2022-08-21T03:31:15;10.63;;;2.75;;
40691;SDS011;26377;53.344;14.886;2022-08-21T03:33:46;8.50;;;2.45;;
40691;SDS011;26377;53.344;14.886;2022-08-21T03:36:16;9.40;;;2.77;;
40691;SDS011;26377;53.344;14.886;2022-08-21T03:38:44;10.75;;;2.40;;
40691;SDS011;26377;53.344;14.886;2022-08-21T03:41:13;7.05;;;2.85;;
40691;SDS011;26377;53.344;14.886;2022-08-21T03:43:41;9.55;;;2.65;;
40691;SDS011;26377;53.344;14.886;2022-08-21T03:46:10;12.93;;;3.27;;
40691;SDS011;26377;53.344;14.886;2022-08-21T03:48:40;9.03;;;2.40;;
40691;SDS011;26377;53.344;14.886;2022-08-21T03:51:07;10.45;;;3.17;;
40691;SDS011;26377;53.344;14.886;2022-08-21T03:53:36;9.08;;;2.83;;
40691;SDS011;26377;53.344;14.886;2022-08-21T03:56:08;9.40;;;2.75;;
40691;SDS011;26377;53.344;14.886;2022-08-21T03:58:39;10.28;;;3.00;;
40691;SDS011;26377;53.344;14.886;2022-08-21T04:01:09;11.97;;;2.90;;
40691;SDS011;26377;53.344;14.886;2022-08-21T04:03:42;8.88;;;3.08;;
40691;SDS011;26377;53.344;14.886;2022-08-21T04:06:14;8.83;;;2.85;;
40691;SDS011;26377;53.344;14.886;2022-08-21T04:08:42;11.48;;;2.90;;
40691;SDS011;26377;53.344;14.886;2022-08-21T04:11:10;6.87;;;3.00;;
40691;SDS011;26377;53.344;14.886;2022-08-21T04:13:38;8.55;;;2.75;;
40691;SDS011;26377;53.344;14.886;2022-08-21T04:16:07;8.20;;;2.70;;
40691;SDS011;26377;53.344;14.886;2022-08-21T04:18:36;11.18;;;2.37;;
40691;SDS011;26377;53.344;14.886;2022-08-21T04:21:07;11.97;;;3.00;;
40691;SDS011;26377;53.344;14.886;2022-08-21T04:23:39;9.58;;;2.60;;
40691;SDS011;26377;53.344;14.886;2022-08-21T04:26:10;8.70;;;2.77;;
40691;SDS011;26377;53.344;14.886;2022-08-21T04:28:39;7.90;;;2.52;;
40691;SDS011;26377;53.344;14.886;2022-08-21T04:31:09;7.85;;;2.33;;
40691;SDS011;26377;53.344;14.886;2022-08-21T04:33:38;15.32;;;2.92;;
40691;SDS011;26377;53.344;14.886;2022-08-21T04:40:05;7.53;;;2.25;;
40691;SDS011;26377;53.344;14.886;2022-08-21T04:42:40;11.33;;;2.50;;
40691;SDS011;26377;53.344;14.886;2022-08-21T04:45:16;8.10;;;2.60;;
40691;SDS011;26377;53.344;14.886;2022-08-21T04:47:55;10.90;;;2.80;;
40691;SDS011;26377;53.344;14.886;2022-08-21T04:53:12;7.20;;;2.80;;
40691;SDS011;26377;53.344;14.886;2022-08-21T04:55:44;7.05;;;2.35;;
40691;SDS011;26377;53.344;14.886;2022-08-21T04:58:15;12.67;;;3.07;;
40691;SDS011;26377;53.344;14.886;2022-08-21T05:00:46;7.25;;;2.58;;
40691;SDS011;26377;53.344;14.886;2022-08-21T05:03:15;9.20;;;2.15;;
40691;SDS011;26377;53.344;14.886;2022-08-21T05:05:44;9.13;;;2.47;;
40691;SDS011;26377;53.344;14.886;2022-08-21T05:08:14;9.40;;;3.47;;
40691;SDS011;26377;53.344;14.886;2022-08-21T05:10:46;8.05;;;2.85;;
40691;SDS011;26377;53.344;14.886;2022-08-21T05:13:18;7.80;;;2.70;;
40691;SDS011;26377;53.344;14.886;2022-08-21T05:15:45;11.73;;;3.15;;
40691;SDS011;26377;53.344;14.886;2022-08-21T05:18:15;13.83;;;2.98;;
40691;SDS011;26377;53.344;14.886;2022-08-21T05:20:43;8.15;;;2.27;;
40691;SDS011;26377;53.344;14.886;2022-08-21T05:23:12;10.85;;;3.00;;
40691;SDS011;26377;53.344;14.886;2022-08-21T05:25:42;8.63;;;3.02;;
40691;SDS011;26377;53.344;14.886;2022-08-21T05:28:11;7.60;;;2.75;;
40691;SDS011;26377;53.344;14.886;2022-08-21T05:30:39;8.53;;;2.45;;
40691;SDS011;26377;53.344;14.886;2022-08-21T05:33:07;7.37;;;3.02;;
40691;SDS011;26377;53.344;14.886;2022-08-21T05:35:37;11.75;;;3.40;;
40691;SDS011;26377;53.344;14.886;2022-08-21T05:38:10;9.20;;;3.02;;
40691;SDS011;26377;53.344;14.886;2022-08-21T05:40:38;9.05;;;2.65;;
40691;SDS011;26377;53.344;14.886;2022-08-21T05:43:07;11.75;;;3.17;;
40691;SDS011;26377;53.344;14.886;2022-08-21T05:45:36;12.35;;;2.83;;
40691;SDS011;26377;53.344;14.886;2022-08-21T05:48:17;9.50;;;2.87;;
40691;SDS011;26377;53.344;14.886;2022-08-21T05:50:48;9.15;;;2.90;;
40691;SDS011;26377;53.344;14.886;2022-08-21T05:53:18;14.35;;;2.90;;
40691;SDS011;26377;53.344;14.886;2022-08-21T05:55:50;8.08;;;2.90;;
40691;SDS011;26377;53.344;14.886;2022-08-21T05:58:20;13.38;;;3.30;;
40691;SDS011;26377;53.344;14.886;2022-08-21T06:00:51;7.97;;;3.27;;
40691;SDS011;26377;53.344;14.886;2022-08-21T06:03:21;9.13;;;2.80;;
40691;SDS011;26377;53.344;14.886;2022-08-21T06:05:54;7.03;;;2.60;;
40691;SDS011;26377;53.344;14.886;2022-08-21T06:08:24;11.75;;;3.17;;
40691;SDS011;26377;53.344;14.886;2022-08-21T06:10:57;6.90;;;2.80;;
40691;SDS011;26377;53.344;14.886;2022-08-21T06:13:30;10.40;;;3.50;;
40691;SDS011;26377;53.344;14.886;2022-08-21T06:16:05;10.03;;;3.33;;
40691;SDS011;26377;53.344;14.886;2022-08-21T06:18:39;11.40;;;2.90;;
40691;SDS011;26377;53.344;14.886;2022-08-21T06:21:09;11.85;;;3.35;;
40691;SDS011;26377;53.344;14.886;2022-08-21T06:23:41;12.55;;;2.75;;
40691;SDS011;26377;53.344;14.886;2022-08-21T06:26:11;11.70;;;3.42;;
40691;SDS011;26377;53.344;14.886;2022-08-21T06:28:42;8.93;;;2.80;;
40691;SDS011;26377;53.344;14.886;2022-08-21T06:31:16;10.60;;;3.02;;
40691;SDS011;26377;53.344;14.886;2022-08-21T06:33:48;10.23;;;3.02;;
40691;SDS011;26377;53.344;14.886;2022-08-21T06:36:17;8.50;;;3.62;;
40691;SDS011;26377;53.344;14.886;2022-08-21T06:38:47;12.40;;;4.20;;
40691;SDS011;26377;53.344;14.886;2022-08-21T06:41:16;8.45;;;3.37;;
40691;SDS011;26377;53.344;14.886;2022-08-21T06:43:44;11.93;;;4.00;;
40691;SDS011;26377;53.344;14.886;2022-08-21T06:46:13;11.78;;;3.50;;
40691;SDS011;26377;53.344;14.886;2022-08-21T06:48:41;7.28;;;3.33;;
40691;SDS011;26377;53.344;14.886;2022-08-21T06:51:10;9.40;;;3.50;;
40691;SDS011;26377;53.344;14.886;2022-08-21T06:53:37;13.08;;;4.25;;
40691;SDS011;26377;53.344;14.886;2022-08-21T06:56:05;8.10;;;3.80;;
40691;SDS011;26377;53.344;14.886;2022-08-21T06:58:34;7.87;;;3.47;;
40691;SDS011;26377;53.344;14.886;2022-08-21T07:01:04;10.72;;;3.55;;
40691;SDS011;26377;53.344;14.886;2022-08-21T07:03:38;10.88;;;3.58;;
40691;SDS011;26377;53.344;14.886;2022-08-21T07:06:08;11.18;;;3.70;;
40691;SDS011;26377;53.344;14.886;2022-08-21T07:08:37;10.60;;;3.65;;
40691;SDS011;26377;53.344;14.886;2022-08-21T07:11:10;12.05;;;3.70;;
40691;SDS011;26377;53.344;14.886;2022-08-21T07:13:44;13.95;;;3.37;;
40691;SDS011;26377;53.344;14.886;2022-08-21T07:16:12;8.23;;;3.77;;
40691;SDS011;26377;53.344;14.886;2022-08-21T07:18:40;10.68;;;4.00;;
40691;SDS011;26377;53.344;14.886;2022-08-21T07:21:08;8.80;;;3.83;;
40691;SDS011;26377;53.344;14.886;2022-08-21T07:23:39;9.68;;;3.20;;
40691;SDS011;26377;53.344;14.886;2022-08-21T07:26:12;9.85;;;3.75;;
40691;SDS011;26377;53.344;14.886;2022-08-21T07:28:43;11.25;;;3.70;;
40691;SDS011;26377;53.344;14.886;2022-08-21T07:31:10;7.75;;;3.58;;
40691;SDS011;26377;53.344;14.886;2022-08-21T07:33:42;10.30;;;3.80;;
40691;SDS011;26377;53.344;14.886;2022-08-21T07:36:11;10.90;;;3.42;;
40691;SDS011;26377;53.344;14.886;2022-08-21T07:38:43;12.58;;;3.95;;
40691;SDS011;26377;53.344;14.886;2022-08-21T07:41:14;10.13;;;3.87;;
40691;SDS011;26377;53.344;14.886;2022-08-21T07:43:46;8.30;;;3.95;;
40691;SDS011;26377;53.344;14.886;2022-08-21T07:46:17;9.33;;;3.92;;
40691;SDS011;26377;53.344;14.886;2022-08-21T07:48:46;7.47;;;3.42;;
40691;SDS011;26377;53.344;14.886;2022-08-21T07:53:48;7.25;;;3.12;;
40691;SDS011;26377;53.344;14.886;2022-08-21T07:56:21;8.83;;;3.60;;
40691;SDS011;26377;53.344;14.886;2022-08-21T07:58:49;12.10;;;4.40;;
40691;SDS011;26377;53.344;14.886;2022-08-21T08:01:18;10.55;;;3.95;;
40691;SDS011;26377;53.344;14.886;2022-08-21T08:03:46;12.15;;;4.17;;
40691;SDS011;26377;53.344;14.886;2022-08-21T08:06:15;10.45;;;4.08;;
40691;SDS011;26377;53.344;14.886;2022-08-21T08:08:45;12.07;;;3.42;;
40691;SDS011;26377;53.344;14.886;2022-08-21T08:11:13;11.20;;;4.03;;
40691;SDS011;26377;53.344;14.886;2022-08-21T08:13:48;9.03;;;3.90;;
40691;SDS011;26377;53.344;14.886;2022-08-21T08:16:14;10.75;;;3.67;;
40691;SDS011;26377;53.344;14.886;2022-08-21T08:18:45;13.13;;;4.25;;
40691;SDS011;26377;53.344;14.886;2022-08-21T08:21:13;13.13;;;4.25;;
40691;SDS011;26377;53.344;14.886;2022-08-21T08:23:40;9.95;;;4.47;;
40691;SDS011;26377;53.344;14.886;2022-08-21T08:26:10;12.60;;;4.55;;
40691;SDS011;26377;53.344;14.886;2022-08-21T08:28:42;12.90;;;4.20;;
40691;SDS011;26377;53.344;14.886;2022-08-21T08:33:41;9.23;;;4.25;;
40691;SDS011;26377;53.344;14.886;2022-08-21T08:36:15;14.23;;;4.05;;
40691;SDS011;26377;53.344;14.886;2022-08-21T08:38:45;10.68;;;3.60;;
40691;SDS011;26377;53.344;14.886;2022-08-21T08:41:19;7.03;;;3.12;;
40691;SDS011;26377;53.344;14.886;2022-08-21T08:43:51;12.80;;;4.20;;
40691;SDS011;26377;53.344;14.886;2022-08-21T08:46:26;11.48;;;3.85;;
40691;SDS011;26377;53.344;14.886;2022-08-21T08:49:18;9.20;;;3.40;;
40691;SDS011;26377;53.344;14.886;2022-08-21T08:52:03;8.20;;;3.40;;
40691;SDS011;26377;53.344;14.886;2022-08-21T08:55:05;15.58;;;3.80;;
40691;SDS011;26377;53.344;14.886;2022-08-21T08:57:45;9.28;;;3.52;;
40691;SDS011;26377;53.344;14.886;2022-08-21T09:00:17;11.40;;;3.33;;
40691;SDS011;26377;53.344;14.886;2022-08-21T09:02:51;11.25;;;4.20;;
40691;SDS011;26377;53.344;14.886;2022-08-21T09:05:22;11.33;;;3.00;;
40691;SDS011;26377;53.344;14.886;2022-08-21T09:11:27;11.33;;;3.37;;
40691;SDS011;26377;53.344;14.886;2022-08-21T09:20:19;13.50;;;3.37;;
40691;SDS011;26377;53.344;14.886;2022-08-21T09:23:30;10.35;;;2.72;;
40691;SDS011;26377;53.344;14.886;2022-08-21T09:26:11;10.23;;;3.02;;
40691;SDS011;26377;53.344;14.886;2022-08-21T09:28:44;11.90;;;3.35;;
40691;SDS011;26377;53.344;14.886;2022-08-21T09:31:23;9.65;;;3.02;;
40691;SDS011;26377;53.344;14.886;2022-08-21T09:34:02;12.35;;;2.62;;
40691;SDS011;26377;53.344;14.886;2022-08-21T09:36:47;7.17;;;2.90;;
40691;SDS011;26377;53.344;14.886;2022-08-21T09:39:23;9.58;;;2.85;;
40691;SDS011;26377;53.344;14.886;2022-08-21T09:42:00;7.50;;;2.90;;
40691;SDS011;26377;53.344;14.886;2022-08-21T09:44:27;10.00;;;3.17;;
40691;SDS011;26377;53.344;14.886;2022-08-21T09:46:59;10.95;;;3.95;;
40691;SDS011;26377;53.344;14.886;2022-08-21T09:49:28;8.20;;;2.67;;
40691;SDS011;26377;53.344;14.886;2022-08-21T09:52:13;7.92;;;2.65;;
40691;SDS011;26377;53.344;14.886;2022-08-21T09:54:51;7.08;;;3.05;;
40691;SDS011;26377;53.344;14.886;2022-08-21T09:57:27;6.53;;;2.47;;
40691;SDS011;26377;53.344;14.886;2022-08-21T10:00:18;6.75;;;2.55;;
40691;SDS011;26377;53.344;14.886;2022-08-21T10:03:10;6.55;;;2.60;;
40691;SDS011;26377;53.344;14.886;2022-08-21T10:05:58;10.38;;;2.60;;
40691;SDS011;26377;53.344;14.886;2022-08-21T10:08:30;10.05;;;2.65;;
40691;SDS011;26377;53.344;14.886;2022-08-21T10:11:08;12.18;;;2.80;;
40691;SDS011;26377;53.344;14.886;2022-08-21T10:16:37;10.90;;;2.05;;
40691;SDS011;26377;53.344;14.886;2022-08-21T10:19:36;6.08;;;2.27;;
40691;SDS011;26377;53.344;14.886;2022-08-21T10:22:38;6.97;;;1.77;;
40691;SDS011;26377;53.344;14.886;2022-08-21T10:25:30;11.10;;;2.47;;
40691;SDS011;26377;53.344;14.886;2022-08-21T10:31:08;11.65;;;2.58;;
40691;SDS011;26377;53.344;14.886;2022-08-21T10:34:06;11.00;;;2.98;;
40691;SDS011;26377;53.344;14.886;2022-08-21T10:39:57;6.92;;;2.15;;
40691;SDS011;26377;53.344;14.886;2022-08-21T10:51:06;6.80;;;1.47;;
40691;SDS011;26377;53.344;14.886;2022-08-21T10:53:50;3.87;;;1.17;;
40691;SDS011;26377;53.344;14.886;2022-08-21T10:56:38;5.20;;;1.50;;
40691;SDS011;26377;53.344;14.886;2022-08-21T11:02:22;6.53;;;1.37;;
40691;SDS011;26377;53.344;14.886;2022-08-21T11:05:11;7.75;;;1.82;;
40691;SDS011;26377;53.344;14.886;2022-08-21T11:07:47;5.45;;;1.45;;
40691;SDS011;26377;53.344;14.886;2022-08-21T11:10:22;11.53;;;1.85;;
40691;SDS011;26377;53.344;14.886;2022-08-21T11:13:06;5.62;;;1.47;;
40691;SDS011;26377;53.344;14.886;2022-08-21T11:22:11;3.42;;;1.25;;
40691;SDS011;26377;53.344;14.886;2022-08-21T11:24:56;5.83;;;1.70;;
40691;SDS011;26377;53.344;14.886;2022-08-21T11:30:19;4.60;;;1.50;;
40691;SDS011;26377;53.344;14.886;2022-08-21T11:35:44;5.37;;;1.65;;
40691;SDS011;26377;53.344;14.886;2022-08-21T11:38:35;4.97;;;1.50;;
40691;SDS011;26377;53.344;14.886;2022-08-21T11:41:30;6.47;;;1.20;;
40691;SDS011;26377;53.344;14.886;2022-08-21T11:44:27;5.83;;;1.30;;
40691;SDS011;26377;53.344;14.886;2022-08-21T11:50:29;3.20;;;1.40;;
40691;SDS011;26377;53.344;14.886;2022-08-21T11:53:05;6.97;;;1.40;;
40691;SDS011;26377;53.344;14.886;2022-08-21T12:01:13;5.15;;;1.50;;
40691;SDS011;26377;53.344;14.886;2022-08-21T12:03:52;3.40;;;1.17;;
40691;SDS011;26377;53.344;14.886;2022-08-21T12:06:36;4.37;;;1.37;;
40691;SDS011;26377;53.344;14.886;2022-08-21T12:09:09;5.15;;;1.40;;
40691;SDS011;26377;53.344;14.886;2022-08-21T12:11:51;5.87;;;1.40;;
40691;SDS011;26377;53.344;14.886;2022-08-21T12:14:18;6.12;;;1.57;;
40691;SDS011;26377;53.344;14.886;2022-08-21T12:16:46;5.85;;;1.50;;
40691;SDS011;26377;53.344;14.886;2022-08-21T12:24:37;4.20;;;1.35;;
40691;SDS011;26377;53.344;14.886;2022-08-21T12:29:51;3.37;;;1.42;;
40691;SDS011;26377;53.344;14.886;2022-08-21T12:32:23;5.42;;;1.70;;
40691;SDS011;26377;53.344;14.886;2022-08-21T12:35:02;3.52;;;1.42;;
40691;SDS011;26377;53.344;14.886;2022-08-21T12:37:50;5.55;;;1.52;;
40691;SDS011;26377;53.344;14.886;2022-08-21T12:40:25;4.95;;;1.60;;
40691;SDS011;26377;53.344;14.886;2022-08-21T12:43:05;3.90;;;1.10;;
40691;SDS011;26377;53.344;14.886;2022-08-21T12:45:45;6.45;;;1.65;;
40691;SDS011;26377;53.344;14.886;2022-08-21T12:50:58;3.98;;;2.17;;
40691;SDS011;26377;53.344;14.886;2022-08-21T12:53:54;4.80;;;1.62;;
40691;SDS011;26377;53.344;14.886;2022-08-21T12:56:27;5.95;;;1.60;;
40691;SDS011;26377;53.344;14.886;2022-08-21T12:59:03;4.45;;;1.35;;
40691;SDS011;26377;53.344;14.886;2022-08-21T13:01:38;3.60;;;1.47;;
40691;SDS011;26377;53.344;14.886;2022-08-21T13:04:13;6.37;;;1.80;;
40691;SDS011;26377;53.344;14.886;2022-08-21T13:06:50;5.40;;;1.47;;
40691;SDS011;26377;53.344;14.886;2022-08-21T13:09:24;3.40;;;1.52;;
40691;SDS011;26377;53.344;14.886;2022-08-21T13:11:55;7.15;;;1.57;;
40691;SDS011;26377;53.344;14.886;2022-08-21T13:14:31;4.95;;;1.77;;
40691;SDS011;26377;53.344;14.886;2022-08-21T13:17:11;5.80;;;1.32;;
40691;SDS011;26377;53.344;14.886;2022-08-21T13:19:51;5.20;;;1.82;;
40691;SDS011;26377;53.344;14.886;2022-08-21T13:22:30;9.30;;;2.55;;
40691;SDS011;26377;53.344;14.886;2022-08-21T13:24:58;7.25;;;1.67;;
40691;SDS011;26377;53.344;14.886;2022-08-21T13:27:27;6.78;;;2.08;;
40691;SDS011;26377;53.344;14.886;2022-08-21T13:30:05;5.85;;;2.40;;
40691;SDS011;26377;53.344;14.886;2022-08-21T13:32:33;10.32;;;4.22;;
40691;SDS011;26377;53.344;14.886;2022-08-21T13:35:16;7.60;;;4.70;;
40691;SDS011;26377;53.344;14.886;2022-08-21T13:37:47;11.45;;;5.85;;
40691;SDS011;26377;53.344;14.886;2022-08-21T13:40:31;7.10;;;3.10;;
40691;SDS011;26377;53.344;14.886;2022-08-21T13:43:11;5.43;;;2.23;;
40691;SDS011;26377;53.344;14.886;2022-08-21T13:45:43;4.12;;;1.77;;
40691;SDS011;26377;53.344;14.886;2022-08-21T13:48:13;4.55;;;1.40;;
40691;SDS011;26377;53.344;14.886;2022-08-21T13:50:40;6.12;;;1.65;;
40691;SDS011;26377;53.344;14.886;2022-08-21T13:55:59;5.28;;;1.95;;
40691;SDS011;26377;53.344;14.886;2022-08-21T13:58:32;5.00;;;1.82;;
40691;SDS011;26377;53.344;14.886;2022-08-21T14:03:58;5.70;;;1.70;;
40691;SDS011;26377;53.344;14.886;2022-08-21T14:06:34;3.62;;;1.82;;
40691;SDS011;26377;53.344;14.886;2022-08-21T14:09:09;8.53;;;4.08;;
40691;SDS011;26377;53.344;14.886;2022-08-21T14:11:42;8.60;;;4.15;;
40691;SDS011;26377;53.344;14.886;2022-08-21T14:14:19;6.20;;;2.77;;
40691;SDS011;26377;53.344;14.886;2022-08-21T14:16:56;5.85;;;2.58;;
40691;SDS011;26377;53.344;14.886;2022-08-21T14:19:38;4.35;;;1.52;;
40691;SDS011;26377;53.344;14.886;2022-08-21T14:22:22;3.75;;;1.50;;
40691;SDS011;26377;53.344;14.886;2022-08-21T14:25:07;8.73;;;2.35;;
40691;SDS011;26377;53.344;14.886;2022-08-21T14:27:44;5.03;;;1.52;;
40691;SDS011;26377;53.344;14.886;2022-08-21T14:33:02;4.12;;;1.47;;
40691;SDS011;26377;53.344;14.886;2022-08-21T14:35:34;5.35;;;1.27;;
40691;SDS011;26377;53.344;14.886;2022-08-21T14:38:13;7.22;;;1.72;;
40691;SDS011;26377;53.344;14.886;2022-08-21T14:40:48;4.42;;;1.20;;
40691;SDS011;26377;53.344;14.886;2022-08-21T14:43:22;3.80;;;1.30;;
40691;SDS011;26377;53.344;14.886;2022-08-21T14:45:52;3.45;;;1.30;;
40691;SDS011;26377;53.344;14.886;2022-08-21T14:48:21;6.30;;;1.40;;
40691;SDS011;26377;53.344;14.886;2022-08-21T14:50:49;7.53;;;1.70;;
40691;SDS011;26377;53.344;14.886;2022-08-21T14:53:20;5.90;;;1.80;;
40691;SDS011;26377;53.344;14.886;2022-08-21T14:55:47;7.80;;;1.82;;
40691;SDS011;26377;53.344;14.886;2022-08-21T14:58:34;3.37;;;1.37;;
40691;SDS011;26377;53.344;14.886;2022-08-21T15:01:07;4.28;;;1.47;;
40691;SDS011;26377;53.344;14.886;2022-08-21T15:03:37;3.35;;;1.17;;
40691;SDS011;26377;53.344;14.886;2022-08-21T15:06:08;6.17;;;1.32;;
40691;SDS011;26377;53.344;14.886;2022-08-21T15:08:36;5.40;;;1.42;;
40691;SDS011;26377;53.344;14.886;2022-08-21T15:11:05;4.33;;;1.20;;
40691;SDS011;26377;53.344;14.886;2022-08-21T15:13:34;2.65;;;1.30;;
40691;SDS011;26377;53.344;14.886;2022-08-21T15:16:03;4.20;;;1.35;;
40691;SDS011;26377;53.344;14.886;2022-08-21T15:18:33;3.87;;;1.22;;
40691;SDS011;26377;53.344;14.886;2022-08-21T15:21:01;5.22;;;1.22;;
40691;SDS011;26377;53.344;14.886;2022-08-21T15:23:28;7.47;;;2.30;;
40691;SDS011;26377;53.344;14.886;2022-08-21T15:25:55;4.03;;;1.77;;
40691;SDS011;26377;53.344;14.886;2022-08-21T15:28:24;4.00;;;1.35;;
40691;SDS011;26377;53.344;14.886;2022-08-21T15:30:53;3.37;;;1.32;;
40691;SDS011;26377;53.344;14.886;2022-08-21T15:33:21;5.85;;;1.60;;
40691;SDS011;26377;53.344;14.886;2022-08-21T15:35:48;7.70;;;1.40;;
40691;SDS011;26377;53.344;14.886;2022-08-21T15:38:15;2.08;;;1.02;;
40691;SDS011;26377;53.344;14.886;2022-08-21T15:40:43;6.80;;;1.50;;
40691;SDS011;26377;53.344;14.886;2022-08-21T15:43:18;4.70;;;1.30;;
40691;SDS011;26377;53.344;14.886;2022-08-21T15:45:55;6.37;;;1.67;;
40691;SDS011;26377;53.344;14.886;2022-08-21T15:48:27;3.02;;;1.00;;
40691;SDS011;26377;53.344;14.886;2022-08-21T15:50:58;7.72;;;1.40;;
40691;SDS011;26377;53.344;14.886;2022-08-21T15:53:27;3.12;;;1.20;;
40691;SDS011;26377;53.344;14.886;2022-08-21T15:55:54;2.35;;;1.20;;
40691;SDS011;26377;53.344;14.886;2022-08-21T15:58:24;4.03;;;1.32;;
40691;SDS011;26377;53.344;14.886;2022-08-21T16:00:51;4.12;;;1.20;;
40691;SDS011;26377;53.344;14.886;2022-08-21T16:03:21;3.47;;;1.47;;
40691;SDS011;26377;53.344;14.886;2022-08-21T16:05:48;3.05;;;1.50;;
40691;SDS011;26377;53.344;14.886;2022-08-21T16:08:18;6.05;;;1.30;;
40691;SDS011;26377;53.344;14.886;2022-08-21T16:10:46;2.95;;;1.62;;
40691;SDS011;26377;53.344;14.886;2022-08-21T16:13:27;5.50;;;1.47;;
40691;SDS011;26377;53.344;14.886;2022-08-21T16:16:02;5.08;;;1.65;;
40691;SDS011;26377;53.344;14.886;2022-08-21T16:18:32;4.33;;;1.37;;
40691;SDS011;26377;53.344;14.886;2022-08-21T16:21:01;4.62;;;1.25;;
40691;SDS011;26377;53.344;14.886;2022-08-21T16:23:31;4.00;;;1.27;;
40691;SDS011;26377;53.344;14.886;2022-08-21T16:26:02;3.65;;;1.30;;
40691;SDS011;26377;53.344;14.886;2022-08-21T16:28:36;3.92;;;1.17;;
40691;SDS011;26377;53.344;14.886;2022-08-21T16:31:05;2.20;;;1.12;;